createdAt,value
2017-01-03T00:00:15.954Z,1003.93
2017-01-03T00:01:15.982Z,1003.91
2017-01-03T00:02:16.011Z,1003.88
2017-01-03T00:03:16.027Z,1003.93
2017-01-03T00:04:16.059Z,1003.93
2017-01-03T00:05:16.085Z,1003.92
2017-01-03T00:06:16.114Z,1003.9
2017-01-03T00:07:16.139Z,1003.88
2017-01-03T00:08:16.168Z,1003.88
2017-01-03T00:09:16.192Z,1003.84
2017-01-03T00:10:16.221Z,1003.84
2017-01-03T00:11:16.246Z,1003.88
2017-01-03T00:12:16.275Z,1003.87
2017-01-03T00:13:16.299Z,1003.81
2017-01-03T00:14:16.327Z,1003.85
2017-01-03T00:15:16.354Z,1003.86
2017-01-03T00:16:16.373Z,1003.88
2017-01-03T00:17:16.406Z,1003.91
2017-01-03T00:18:16.435Z,1003.89
2017-01-03T00:19:16.459Z,1003.95
2017-01-03T00:20:16.485Z,1003.96
2017-01-03T00:21:16.513Z,1003.98
2017-01-03T00:22:16.542Z,1004.04
2017-01-03T00:23:16.566Z,1004.02
2017-01-03T00:24:16.590Z,1004
2017-01-03T00:25:16.623Z,1004.01
2017-01-03T00:26:16.645Z,1004
2017-01-03T00:27:16.673Z,1004.03
2017-01-03T00:28:16.698Z,1004.01
2017-01-03T00:29:16.727Z,1003.97
2017-01-03T00:30:16.752Z,1004.03
2017-01-03T00:31:16.776Z,1004.02
2017-01-03T00:32:16.801Z,1004.02
2017-01-03T00:33:16.834Z,1004.05
2017-01-03T00:34:16.859Z,1004.06
2017-01-03T00:35:16.883Z,1004.02
2017-01-03T00:36:16.913Z,1004.04
2017-01-03T00:37:16.938Z,1004.04
2017-01-03T00:38:16.966Z,1004.05
2017-01-03T00:39:16.990Z,1004.05
2017-01-03T00:40:17.019Z,1004.05
2017-01-03T00:41:17.048Z,1004.05
2017-01-03T00:42:17.073Z,1004.01
2017-01-03T00:43:17.097Z,1004.05
2017-01-03T00:44:17.126Z,1003.99
2017-01-03T00:45:17.150Z,1003.95
2017-01-03T00:46:17.176Z,1003.99
2017-01-03T00:47:17.205Z,1003.96
2017-01-03T00:48:17.229Z,1003.99
2017-01-03T00:49:17.258Z,1003.97
2017-01-03T00:50:17.283Z,1003.97
2017-01-03T00:51:17.310Z,1003.96
2017-01-03T00:52:17.336Z,1003.95
2017-01-03T00:53:17.361Z,1003.96
2017-01-03T00:54:17.389Z,1004
2017-01-03T00:55:17.418Z,1004.03
2017-01-03T00:56:17.443Z,1004
2017-01-03T00:57:17.467Z,1004.02
2017-01-03T00:58:17.492Z,1003.97
2017-01-03T00:59:17.521Z,1003.99
2017-01-03T01:00:17.550Z,1003.96
2017-01-03T01:01:17.574Z,1003.96
2017-01-03T01:02:17.603Z,1003.98
2017-01-03T01:03:17.628Z,1003.96
2017-01-03T01:04:17.652Z,1003.98
2017-01-03T01:05:17.682Z,1003.99
2017-01-03T01:06:17.706Z,1003.94
2017-01-03T01:07:17.735Z,1004
2017-01-03T01:08:17.759Z,1004
2017-01-03T01:09:17.788Z,1004.01
2017-01-03T01:10:17.818Z,1004.04
2017-01-03T01:11:17.838Z,1004.04
2017-01-03T01:12:17.867Z,1004.05
2017-01-03T01:13:17.893Z,1004.06
2017-01-03T01:14:17.920Z,1004.06
2017-01-03T01:15:17.950Z,1004.08
2017-01-03T01:16:17.978Z,1004.09
2017-01-03T01:17:17.998Z,1004.08
2017-01-03T01:18:18.028Z,1004.06
2017-01-03T01:19:18.052Z,1004.07
2017-01-03T01:20:18.376Z,1004.11
2017-01-03T01:21:18.106Z,1004.07
2017-01-03T01:22:18.131Z,1004.11
2017-01-03T01:23:18.159Z,1004.1
2017-01-03T01:24:18.183Z,1004.13
2017-01-03T01:25:18.213Z,1004.11
2017-01-03T01:26:18.237Z,1004.16
2017-01-03T01:27:18.266Z,1004.15
2017-01-03T01:28:18.290Z,1004.17
2017-01-03T01:29:18.315Z,1004.17
2017-01-03T01:30:18.343Z,1004.23
2017-01-03T01:31:18.368Z,1004.2
2017-01-03T01:32:18.397Z,1004.21
2017-01-03T01:33:18.422Z,1004.2
2017-01-03T01:34:18.450Z,1004.25
2017-01-03T01:35:18.475Z,1004.22
2017-01-03T01:36:18.500Z,1004.22
2017-01-03T01:37:18.529Z,1004.23
2017-01-03T01:38:18.553Z,1004.22
2017-01-03T01:39:18.577Z,1004.23
2017-01-03T01:40:18.606Z,1004.25
2017-01-03T01:41:18.631Z,1004.27
2017-01-03T01:42:18.660Z,1004.27
2017-01-03T01:43:18.684Z,1004.31
2017-01-03T01:44:18.722Z,1004.3
2017-01-03T01:45:18.737Z,1004.27
2017-01-03T01:46:18.763Z,1004.31
2017-01-03T01:47:18.791Z,1004.33
2017-01-03T01:48:18.811Z,1004.38
2017-01-03T01:49:18.872Z,1004.37
2017-01-03T01:50:18.868Z,1004.39
2017-01-03T01:51:18.897Z,1004.43
2017-01-03T01:52:18.918Z,1004.46
2017-01-03T01:53:18.947Z,1004.46
2017-01-03T01:54:18.976Z,1004.47
2017-01-03T01:55:19.001Z,1004.48
2017-01-03T01:56:19.029Z,1004.42
2017-01-03T01:57:19.053Z,1004.49
2017-01-03T01:58:19.078Z,1004.49
2017-01-03T01:59:19.107Z,1004.45
2017-01-03T02:00:19.131Z,1004.43
2017-01-03T02:01:19.160Z,1004.43
2017-01-03T02:02:19.185Z,1004.43
2017-01-03T02:03:19.214Z,1004.46
2017-01-03T02:04:19.239Z,1004.42
2017-01-03T02:05:19.263Z,1004.45
2017-01-03T02:06:19.292Z,1004.42
2017-01-03T02:07:19.315Z,1004.42
2017-01-03T02:08:19.345Z,1004.44
2017-01-03T02:09:19.375Z,1004.43
2017-01-03T02:10:19.396Z,1004.47
2017-01-03T02:11:19.424Z,1004.47
2017-01-03T02:12:19.449Z,1004.42
2017-01-03T02:13:19.473Z,1004.48
2017-01-03T02:14:19.502Z,1004.48
2017-01-03T02:15:19.527Z,1004.49
2017-01-03T02:16:19.556Z,1004.48
2017-01-03T02:17:19.580Z,1004.51
2017-01-03T02:18:19.609Z,1004.47
2017-01-03T02:19:19.634Z,1004.53
2017-01-03T02:20:19.659Z,1004.53
2017-01-03T02:21:19.688Z,1004.56
2017-01-03T02:22:19.712Z,1004.56
2017-01-03T02:23:19.737Z,1004.51
2017-01-03T02:24:19.766Z,1004.48
2017-01-03T02:25:19.790Z,1004.52
2017-01-03T02:26:19.820Z,1004.55
2017-01-03T02:27:19.843Z,1004.58
2017-01-03T02:28:19.869Z,1004.56
2017-01-03T02:29:19.897Z,1004.53
2017-01-03T02:30:19.921Z,1004.52
2017-01-03T02:31:19.951Z,1004.54
2017-01-03T02:32:19.975Z,1004.53
2017-01-03T02:33:20.004Z,1004.56
2017-01-03T02:34:20.025Z,1004.57
2017-01-03T02:35:20.053Z,1004.58
2017-01-03T02:36:20.083Z,1004.61
2017-01-03T02:37:20.107Z,1004.59
2017-01-03T02:38:20.132Z,1004.64
2017-01-03T02:39:20.157Z,1004.61
2017-01-03T02:40:20.185Z,1004.64
2017-01-03T02:41:20.214Z,1004.58
2017-01-03T02:42:20.235Z,1004.58
2017-01-03T02:43:20.263Z,1004.59
2017-01-03T02:44:20.293Z,1004.59
2017-01-03T02:45:20.318Z,1004.58
2017-01-03T02:46:20.342Z,1004.58
2017-01-03T02:47:20.370Z,1004.55
2017-01-03T02:48:20.395Z,1004.51
2017-01-03T02:49:20.424Z,1004.49
2017-01-03T02:50:20.449Z,1004.5
2017-01-03T02:51:20.474Z,1004.47
2017-01-03T02:52:20.503Z,1004.44
2017-01-03T02:53:20.527Z,1004.42
2017-01-03T02:54:20.556Z,1004.4
2017-01-03T02:55:20.581Z,1004.42
2017-01-03T02:56:20.606Z,1004.4
2017-01-03T02:57:20.638Z,1004.41
2017-01-03T02:58:20.659Z,1004.37
2017-01-03T02:59:20.687Z,1004.38
2017-01-03T03:00:20.712Z,1004.37
2017-01-03T03:01:20.737Z,1004.38
2017-01-03T03:02:20.766Z,1004.37
2017-01-03T03:03:20.791Z,1004.37
2017-01-03T03:04:20.819Z,1004.34
2017-01-03T03:05:20.839Z,1004.31
2017-01-03T03:06:20.869Z,1004.34
2017-01-03T03:07:20.898Z,1004.33
2017-01-03T03:08:20.923Z,1004.31
2017-01-03T03:09:20.947Z,1004.31
2017-01-03T03:10:20.975Z,1004.33
2017-01-03T03:11:21.001Z,1004.31
2017-01-03T03:12:21.033Z,1004.28
2017-01-03T03:13:21.054Z,1004.26
2017-01-03T03:14:21.079Z,1004.27
2017-01-03T03:15:21.112Z,1004.28
2017-01-03T03:16:21.133Z,1004.27
2017-01-03T03:17:21.153Z,1004.29
2017-01-03T03:18:21.186Z,1004.26
2017-01-03T03:19:21.210Z,1004.3
2017-01-03T03:20:21.239Z,1004.3
2017-01-03T03:21:21.264Z,1004.28
2017-01-03T03:22:21.285Z,1004.34
2017-01-03T03:23:21.314Z,1004.35
2017-01-03T03:24:21.342Z,1004.36
2017-01-03T03:25:21.367Z,1004.32
2017-01-03T03:26:21.395Z,1004.33
2017-01-03T03:27:21.420Z,1004.3
2017-01-03T03:28:21.450Z,1004.33
2017-01-03T03:29:21.474Z,1004.31
2017-01-03T03:30:21.498Z,1004.32
2017-01-03T03:31:21.528Z,1004.29
2017-01-03T03:32:21.552Z,1004.31
2017-01-03T03:33:21.573Z,1004.28
2017-01-03T03:34:21.607Z,1004.31
2017-01-03T03:35:21.630Z,1004.31
2017-01-03T03:36:21.655Z,1004.31
2017-01-03T03:37:21.689Z,1004.3
2017-01-03T03:38:21.707Z,1004.32
2017-01-03T03:39:21.734Z,1004.31
2017-01-03T03:40:21.762Z,1004.34
2017-01-03T03:41:21.787Z,1004.3
2017-01-03T03:42:21.816Z,1004.3
2017-01-03T03:43:21.841Z,1004.28
2017-01-03T03:44:21.866Z,1004.28
2017-01-03T03:45:21.893Z,1004.25
2017-01-03T03:46:21.918Z,1004.24
2017-01-03T03:47:21.943Z,1004.26
2017-01-03T03:48:21.972Z,1004.23
2017-01-03T03:49:21.993Z,1004.18
2017-01-03T03:50:22.021Z,1004.18
2017-01-03T03:51:22.050Z,1004.18
2017-01-03T03:52:22.079Z,1004.14
2017-01-03T03:53:22.100Z,1004.15
2017-01-03T03:54:22.125Z,1004.12
2017-01-03T03:55:22.154Z,1004.15
2017-01-03T03:56:22.178Z,1004.1
2017-01-03T03:57:22.207Z,1004.1
2017-01-03T03:58:22.230Z,1004.08
2017-01-03T03:59:22.256Z,1004.07
2017-01-03T04:00:22.285Z,1004.06
2017-01-03T04:01:22.310Z,1004.08
2017-01-03T04:02:22.335Z,1004.02
2017-01-03T04:03:22.363Z,1004.03
2017-01-03T04:04:22.389Z,1004
2017-01-03T04:05:22.417Z,1004.01
2017-01-03T04:06:22.442Z,1004
2017-01-03T04:07:22.465Z,1004.03
2017-01-03T04:08:22.496Z,1004.02
2017-01-03T04:09:22.523Z,1004.07
2017-01-03T04:10:22.545Z,1004.05
2017-01-03T04:11:22.573Z,1004.12
2017-01-03T04:12:22.594Z,1004.08
2017-01-03T04:13:22.623Z,1004.17
2017-01-03T04:14:22.647Z,1004.2
2017-01-03T04:15:22.677Z,1004.15
2017-01-03T04:16:22.704Z,1004.18
2017-01-03T04:17:22.726Z,1004.22
2017-01-03T04:18:22.754Z,1004.19
2017-01-03T04:19:22.779Z,1004.16
2017-01-03T04:20:22.803Z,1004.17
2017-01-03T04:21:22.832Z,1004.15
2017-01-03T04:22:22.857Z,1004.18
2017-01-03T04:23:22.881Z,1004.2
2017-01-03T04:24:22.911Z,1004.19
2017-01-03T04:25:22.931Z,1004.2
2017-01-03T04:26:22.961Z,1004.22
2017-01-03T04:27:22.989Z,1004.24
2017-01-03T04:28:23.015Z,1004.29
2017-01-03T04:29:23.042Z,1004.29
2017-01-03T04:30:23.066Z,1004.28
2017-01-03T04:31:23.090Z,1004.29
2017-01-03T04:32:23.112Z,1004.31
2017-01-03T04:33:23.145Z,1004.29
2017-01-03T04:34:23.174Z,1004.3
2017-01-03T04:35:23.194Z,1004.29
2017-01-03T04:36:23.220Z,1004.23
2017-01-03T04:37:23.248Z,1004.29
2017-01-03T04:38:23.272Z,1004.23
2017-01-03T04:39:23.301Z,1004.28
2017-01-03T04:40:23.329Z,1004.27
2017-01-03T04:41:23.350Z,1004.35
2017-01-03T04:42:23.379Z,1004.36
2017-01-03T04:43:23.404Z,1004.32
2017-01-03T04:44:23.429Z,1004.4
2017-01-03T04:45:23.457Z,1004.39
2017-01-03T04:46:23.482Z,1004.41
2017-01-03T04:47:23.507Z,1004.45
2017-01-03T04:48:23.535Z,1004.44
2017-01-03T04:49:23.559Z,1004.41
2017-01-03T04:50:23.584Z,1004.4
2017-01-03T04:51:23.610Z,1004.42
2017-01-03T04:52:23.638Z,1004.39
2017-01-03T04:53:23.662Z,1004.4
2017-01-03T04:54:23.687Z,1004.42
2017-01-03T04:55:23.716Z,1004.38
2017-01-03T04:56:23.741Z,1004.38
2017-01-03T04:57:23.765Z,1004.4
2017-01-03T04:58:23.794Z,1004.4
2017-01-03T04:59:23.819Z,1004.37
2017-01-03T05:00:23.844Z,1004.4
2017-01-03T05:01:23.868Z,1004.46
2017-01-03T05:02:23.897Z,1004.48
2017-01-03T05:03:23.922Z,1004.47
2017-01-03T05:04:23.946Z,1004.47
2017-01-03T05:05:23.975Z,1004.49
2017-01-03T05:06:24.000Z,1004.5
2017-01-03T05:07:24.024Z,1004.46
2017-01-03T05:08:24.049Z,1004.47
2017-01-03T05:09:24.077Z,1004.46
2017-01-03T05:10:24.102Z,1004.43
2017-01-03T05:11:24.127Z,1004.44
2017-01-03T05:12:24.156Z,1004.42
2017-01-03T05:13:24.179Z,1004.43
2017-01-03T05:14:24.206Z,1004.46
2017-01-03T05:15:24.230Z,1004.5
2017-01-03T05:16:24.256Z,1004.5
2017-01-03T05:17:24.283Z,1004.52
2017-01-03T05:18:24.311Z,1004.53
2017-01-03T05:19:24.336Z,1004.51
2017-01-03T05:20:24.359Z,1004.5
2017-01-03T05:21:24.385Z,1004.51
2017-01-03T05:22:24.410Z,1004.56
2017-01-03T05:23:24.439Z,1004.5
2017-01-03T05:24:24.463Z,1004.49
2017-01-03T05:25:24.491Z,1004.49
2017-01-03T05:26:24.514Z,1004.51
2017-01-03T05:27:24.540Z,1004.55
2017-01-03T05:28:24.565Z,1004.67
2017-01-03T05:29:24.590Z,1004.64
2017-01-03T05:30:24.617Z,1004.63
2017-01-03T05:31:24.643Z,1004.58
2017-01-03T05:32:24.672Z,1004.58
2017-01-03T05:33:24.696Z,1004.62
2017-01-03T05:34:24.721Z,1004.61
2017-01-03T05:35:24.749Z,1004.61
2017-01-03T05:36:24.774Z,1004.64
2017-01-03T05:37:24.799Z,1004.65
2017-01-03T05:38:24.823Z,1004.64
2017-01-03T05:39:24.852Z,1004.64
2017-01-03T05:40:24.877Z,1004.64
2017-01-03T05:41:24.902Z,1004.63
2017-01-03T05:42:24.926Z,1004.57
2017-01-03T05:43:24.951Z,1004.59
2017-01-03T05:44:24.980Z,1004.6
2017-01-03T05:45:25.004Z,1004.65
2017-01-03T05:46:25.029Z,1004.62
2017-01-03T05:47:25.058Z,1004.63
2017-01-03T05:48:25.081Z,1004.62
2017-01-03T05:49:25.111Z,1004.59
2017-01-03T05:50:25.136Z,1004.63
2017-01-03T05:51:25.161Z,1004.63
2017-01-03T05:52:25.185Z,1004.62
2017-01-03T05:53:25.213Z,1004.6
2017-01-03T05:54:25.234Z,1004.62
2017-01-03T05:55:25.264Z,1004.61
2017-01-03T05:56:25.292Z,1004.64
2017-01-03T05:57:25.317Z,1004.66
2017-01-03T05:58:25.341Z,1004.65
2017-01-03T05:59:25.366Z,1004.65
2017-01-03T06:00:25.394Z,1004.63
2017-01-03T06:01:25.419Z,1004.66
2017-01-03T06:02:25.448Z,1004.67
2017-01-03T06:03:25.473Z,1004.66
2017-01-03T06:04:25.501Z,1004.67
2017-01-03T06:05:25.526Z,1004.67
2017-01-03T06:06:25.550Z,1004.64
2017-01-03T06:07:25.572Z,1004.64
2017-01-03T06:08:25.604Z,1004.64
2017-01-03T06:09:25.629Z,1004.68
2017-01-03T06:10:25.656Z,1004.66
2017-01-03T06:11:25.682Z,1004.67
2017-01-03T06:12:25.707Z,1004.7
2017-01-03T06:13:25.735Z,1004.71
2017-01-03T06:14:25.760Z,1004.73
2017-01-03T06:15:25.786Z,1004.74
2017-01-03T06:16:25.813Z,1004.73
2017-01-03T06:17:25.836Z,1004.78
2017-01-03T06:18:25.863Z,1004.74
2017-01-03T06:19:25.892Z,1004.81
2017-01-03T06:20:25.917Z,1004.79
2017-01-03T06:21:25.937Z,1004.82
2017-01-03T06:22:25.970Z,1004.83
2017-01-03T06:23:25.994Z,1004.83
2017-01-03T06:24:26.019Z,1004.79
2017-01-03T06:25:26.048Z,1004.82
2017-01-03T06:26:26.073Z,1004.81
2017-01-03T06:27:26.101Z,1004.84
2017-01-03T06:28:26.126Z,1004.8
2017-01-03T06:29:26.147Z,1004.8
2017-01-03T06:30:26.179Z,1004.8
2017-01-03T06:31:26.204Z,1004.79
2017-01-03T06:32:26.233Z,1004.81
2017-01-03T06:33:26.258Z,1004.73
2017-01-03T06:34:26.282Z,1004.76
2017-01-03T06:35:26.311Z,1004.79
2017-01-03T06:36:26.336Z,1004.75
2017-01-03T06:37:26.361Z,1004.74
2017-01-03T06:38:26.380Z,1004.78
2017-01-03T06:39:26.414Z,1004.76
2017-01-03T06:40:26.443Z,1004.73
2017-01-03T06:41:26.467Z,1004.73
2017-01-03T06:42:26.497Z,1004.74
2017-01-03T06:43:26.521Z,1004.8
2017-01-03T06:44:26.546Z,1004.77
2017-01-03T06:45:26.575Z,1004.8
2017-01-03T06:46:26.599Z,1004.78
2017-01-03T06:47:26.624Z,1004.75
2017-01-03T06:48:26.653Z,1004.77
2017-01-03T06:49:26.678Z,1004.81
2017-01-03T06:50:26.706Z,1004.79
2017-01-03T06:51:26.731Z,1004.81
2017-01-03T06:52:26.759Z,1004.77
2017-01-03T06:53:26.784Z,1004.85
2017-01-03T06:54:26.809Z,1004.84
2017-01-03T06:55:26.838Z,1004.84
2017-01-03T06:56:26.862Z,1004.87
2017-01-03T06:57:26.887Z,1004.81
2017-01-03T06:58:26.913Z,1004.85
2017-01-03T06:59:26.941Z,1004.88
2017-01-03T07:00:26.969Z,1004.88
2017-01-03T07:01:26.994Z,1004.86
2017-01-03T07:02:27.023Z,1004.89
2017-01-03T07:03:27.048Z,1004.84
2017-01-03T07:04:27.073Z,1004.86
2017-01-03T07:05:27.101Z,1004.85
2017-01-03T07:06:27.126Z,1004.81
2017-01-03T07:07:27.155Z,1004.81
2017-01-03T07:08:27.179Z,1004.83
2017-01-03T07:09:27.204Z,1004.86
2017-01-03T07:10:27.231Z,1004.79
2017-01-03T07:11:27.262Z,1004.9
2017-01-03T07:12:27.281Z,1004.89
2017-01-03T07:13:27.309Z,1004.85
2017-01-03T07:14:27.336Z,1004.85
2017-01-03T07:15:27.364Z,1004.85
2017-01-03T07:16:27.390Z,1004.87
2017-01-03T07:17:27.418Z,1004.89
2017-01-03T07:18:27.443Z,1004.9
2017-01-03T07:19:27.472Z,1004.9
2017-01-03T07:20:27.496Z,1004.89
2017-01-03T07:21:27.525Z,1004.86
2017-01-03T07:22:27.550Z,1004.88
2017-01-03T07:23:27.579Z,1004.89
2017-01-03T07:24:27.604Z,1004.9
2017-01-03T07:25:27.624Z,1004.84
2017-01-03T07:26:27.657Z,1004.9
2017-01-03T07:27:27.686Z,1004.86
2017-01-03T07:28:27.710Z,1004.9
2017-01-03T07:29:27.735Z,1004.87
2017-01-03T07:30:27.756Z,1004.94
2017-01-03T07:31:27.789Z,1004.85
2017-01-03T07:32:27.813Z,1004.83
2017-01-03T07:33:27.842Z,1004.86
2017-01-03T07:34:27.866Z,1004.85
2017-01-03T07:35:27.895Z,1004.82
2017-01-03T07:36:27.920Z,1004.86
2017-01-03T07:37:27.949Z,1004.8
2017-01-03T07:38:27.974Z,1004.84
2017-01-03T07:39:28.006Z,1004.83
2017-01-03T07:40:28.023Z,1004.81
2017-01-03T07:41:28.056Z,1004.8
2017-01-03T07:42:28.081Z,1004.77
2017-01-03T07:43:28.109Z,1004.77
2017-01-03T07:44:28.134Z,1004.78
2017-01-03T07:45:28.158Z,1004.75
2017-01-03T07:46:28.183Z,1004.82
2017-01-03T07:47:28.212Z,1004.88
2017-01-03T07:48:28.242Z,1004.88
2017-01-03T07:49:28.266Z,1004.93
2017-01-03T07:50:28.295Z,1004.93
2017-01-03T07:51:28.319Z,1004.92
2017-01-03T07:52:28.344Z,1004.96
2017-01-03T07:53:28.372Z,1004.92
2017-01-03T07:54:28.398Z,1004.94
2017-01-03T07:55:28.426Z,1004.9
2017-01-03T07:56:28.451Z,1004.91
2017-01-03T07:57:28.480Z,1004.87
2017-01-03T07:58:28.504Z,1004.86
2017-01-03T07:59:28.529Z,1004.86
2017-01-03T08:00:28.557Z,1004.9
2017-01-03T08:01:28.589Z,1004.92
2017-01-03T08:02:28.611Z,1004.88
2017-01-03T08:03:28.636Z,1004.89
2017-01-03T08:04:28.665Z,1004.88
2017-01-03T08:05:28.689Z,1004.84
2017-01-03T08:06:28.718Z,1004.92
2017-01-03T08:07:28.743Z,1004.87
2017-01-03T08:08:28.767Z,1004.92
2017-01-03T08:09:28.796Z,1004.9
2017-01-03T08:10:28.820Z,1004.94
2017-01-03T08:11:28.857Z,1004.96
2017-01-03T08:12:28.877Z,1004.96
2017-01-03T08:13:28.905Z,1004.98
2017-01-03T08:14:28.928Z,1005
2017-01-03T08:15:28.958Z,1004.96
2017-01-03T08:16:28.981Z,1004.96
2017-01-03T08:17:29.007Z,1005
2017-01-03T08:18:29.026Z,1005.02
2017-01-03T08:19:29.059Z,1005.03
2017-01-03T08:20:29.084Z,1005.05
2017-01-03T08:21:29.112Z,1005.07
2017-01-03T08:22:29.137Z,1005.07
2017-01-03T08:23:29.167Z,1005.05
2017-01-03T08:24:29.191Z,1005.07
2017-01-03T08:25:29.215Z,1005.05
2017-01-03T08:26:29.244Z,1005.03
2017-01-03T08:27:29.269Z,1005.02
2017-01-03T08:28:29.297Z,1005.05
2017-01-03T08:29:29.322Z,1004.97
2017-01-03T08:30:29.347Z,1004.98
2017-01-03T08:31:29.388Z,1004.92
2017-01-03T08:32:29.401Z,1004.92
2017-01-03T08:33:29.429Z,1004.91
2017-01-03T08:34:29.453Z,1004.9
2017-01-03T08:35:29.482Z,1004.88
2017-01-03T08:36:29.507Z,1004.84
2017-01-03T08:37:29.531Z,1004.8
2017-01-03T08:38:29.561Z,1004.81
2017-01-03T08:39:29.586Z,1004.82
2017-01-03T08:40:29.605Z,1004.77
2017-01-03T08:41:29.639Z,1004.76
2017-01-03T08:42:29.663Z,1004.74
2017-01-03T08:43:29.691Z,1004.78
2017-01-03T08:44:29.718Z,1004.75
2017-01-03T08:45:29.741Z,1004.83
2017-01-03T08:46:29.770Z,1004.85
2017-01-03T08:47:29.795Z,1004.9
2017-01-03T08:48:29.823Z,1004.97
2017-01-03T08:49:29.843Z,1004.99
2017-01-03T08:50:29.872Z,1005
2017-01-03T08:51:29.901Z,1005.02
2017-01-03T08:52:29.925Z,1005.04
2017-01-03T08:53:29.959Z,1005.1
2017-01-03T08:54:29.980Z,1005.13
2017-01-03T08:55:29.999Z,1005.14
2017-01-03T08:56:30.033Z,1005.14
2017-01-03T08:57:30.057Z,1005.15
2017-01-03T08:58:30.088Z,1005.16
2017-01-03T08:59:30.111Z,1005.2
2017-01-03T09:00:30.136Z,1005.23
2017-01-03T09:01:30.165Z,1005.24
2017-01-03T09:02:30.189Z,1005.27
2017-01-03T09:03:30.218Z,1005.35
2017-01-03T09:04:30.243Z,1005.37
2017-01-03T09:05:30.267Z,1005.5
2017-01-03T09:06:30.295Z,1005.53
2017-01-03T09:07:30.320Z,1005.58
2017-01-03T09:08:30.348Z,1005.52
2017-01-03T09:09:30.376Z,1005.58
2017-01-03T09:10:30.398Z,1005.59
2017-01-03T09:11:30.426Z,1005.62
2017-01-03T09:12:30.446Z,1005.58
2017-01-03T09:13:30.479Z,1005.52
2017-01-03T09:14:30.503Z,1005.57
2017-01-03T09:15:30.532Z,1005.62
2017-01-03T09:16:30.556Z,1005.58
2017-01-03T09:17:30.581Z,1005.58
2017-01-03T09:18:30.610Z,1005.61
2017-01-03T09:19:30.636Z,1005.62
2017-01-03T09:20:30.658Z,1005.65
2017-01-03T09:21:30.687Z,1005.67
2017-01-03T09:22:30.715Z,1005.72
2017-01-03T09:23:30.739Z,1005.67
2017-01-03T09:24:30.764Z,1005.71
2017-01-03T09:25:30.789Z,1005.72
2017-01-03T09:26:30.820Z,1005.69
2017-01-03T09:27:30.843Z,1005.73
2017-01-03T09:28:30.871Z,1005.73
2017-01-03T09:29:30.895Z,1005.65
2017-01-03T09:30:30.919Z,1005.67
2017-01-03T09:31:30.949Z,1005.61
2017-01-03T09:32:30.972Z,1005.64
2017-01-03T09:33:31.001Z,1005.6
2017-01-03T09:34:31.026Z,1005.61
2017-01-03T09:35:31.055Z,1005.59
2017-01-03T09:36:31.079Z,1005.57
2017-01-03T09:37:31.107Z,1005.57
2017-01-03T09:38:31.132Z,1005.55
2017-01-03T09:39:31.157Z,1005.53
2017-01-03T09:40:31.185Z,1005.52
2017-01-03T09:41:31.210Z,1005.51
2017-01-03T09:42:31.234Z,1005.53
2017-01-03T09:43:31.258Z,1005.54
2017-01-03T09:44:31.288Z,1005.52
2017-01-03T09:45:31.316Z,1005.56
2017-01-03T09:46:31.341Z,1005.55
2017-01-03T09:47:31.369Z,1005.55
2017-01-03T09:48:31.389Z,1005.58
2017-01-03T09:49:31.418Z,1005.57
2017-01-03T09:50:31.447Z,1005.61
2017-01-03T09:51:31.471Z,1005.59
2017-01-03T09:52:31.498Z,1005.6
2017-01-03T09:53:31.528Z,1005.58
2017-01-03T09:54:31.548Z,1005.59
2017-01-03T09:55:31.577Z,1005.66
2017-01-03T09:56:31.602Z,1005.68
2017-01-03T09:57:31.623Z,1005.67
2017-01-03T09:58:31.656Z,1005.71
2017-01-03T09:59:31.680Z,1005.79
2017-01-03T10:00:31.710Z,1005.8
2017-01-03T10:01:31.734Z,1005.8
2017-01-03T10:02:31.758Z,1005.81
2017-01-03T10:03:31.786Z,1005.76
2017-01-03T10:04:31.815Z,1005.77
2017-01-03T10:05:31.844Z,1005.81
2017-01-03T10:06:31.865Z,1005.83
2017-01-03T10:07:31.889Z,1005.82
2017-01-03T10:08:31.919Z,1005.86
2017-01-03T10:09:31.943Z,1005.88
2017-01-03T10:10:31.972Z,1005.83
2017-01-03T10:11:31.996Z,1005.87
2017-01-03T10:12:32.021Z,1005.81
2017-01-03T10:13:32.050Z,1005.83
2017-01-03T10:14:32.075Z,1005.8
2017-01-03T10:15:32.101Z,1005.77
2017-01-03T10:16:32.128Z,1005.76
2017-01-03T10:17:32.157Z,1005.82
2017-01-03T10:18:32.182Z,1005.84
2017-01-03T10:19:32.206Z,1005.83
2017-01-03T10:20:32.234Z,1005.82
2017-01-03T10:21:32.260Z,1005.81
2017-01-03T10:22:32.284Z,1005.79
2017-01-03T10:23:32.313Z,1005.78
2017-01-03T10:24:32.338Z,1005.77
2017-01-03T10:25:32.366Z,1005.73
2017-01-03T10:26:32.391Z,1005.69
2017-01-03T10:27:32.415Z,1005.65
2017-01-03T10:28:32.444Z,1005.61
2017-01-03T10:29:32.467Z,1005.64
2017-01-03T10:30:32.501Z,1005.58
2017-01-03T10:31:32.523Z,1005.51
2017-01-03T10:32:32.547Z,1005.43
2017-01-03T10:33:32.576Z,1005.41
2017-01-03T10:34:32.600Z,1005.33
2017-01-03T10:35:32.625Z,1005.36
2017-01-03T10:36:32.653Z,1005.35
2017-01-03T10:37:32.668Z,1005.4
2017-01-03T10:38:32.710Z,1005.37
2017-01-03T10:39:32.732Z,1005.37
2017-01-03T10:40:32.756Z,1005.37
2017-01-03T10:41:32.785Z,1005.35
2017-01-03T10:42:32.809Z,1005.34
2017-01-03T10:43:32.838Z,1005.35
2017-01-03T10:44:32.864Z,1005.38
2017-01-03T10:45:32.887Z,1005.35
2017-01-03T10:46:32.916Z,1005.32
2017-01-03T10:47:32.941Z,1005.27
2017-01-03T10:48:32.970Z,1005.33
2017-01-03T10:49:32.994Z,1005.35
2017-01-03T10:50:33.023Z,1005.35
2017-01-03T10:51:33.048Z,1005.3
2017-01-03T10:52:33.073Z,1005.29
2017-01-03T10:53:33.105Z,1005.31
2017-01-03T10:54:33.131Z,1005.33
2017-01-03T10:55:33.155Z,1005.33
2017-01-03T10:56:33.181Z,1005.31
2017-01-03T10:57:33.209Z,1005.33
2017-01-03T10:58:33.234Z,1005.35
2017-01-03T10:59:33.259Z,1005.3
2017-01-03T11:00:33.288Z,1005.3
2017-01-03T11:01:33.312Z,1005.23
2017-01-03T11:02:33.340Z,1005.27
2017-01-03T11:03:33.367Z,1005.25
2017-01-03T11:04:33.387Z,1005.25
2017-01-03T11:05:33.421Z,1005.29
2017-01-03T11:06:33.445Z,1005.21
2017-01-03T11:07:33.474Z,1005.21
2017-01-03T11:08:33.499Z,1005.18
2017-01-03T11:09:33.524Z,1005.21
2017-01-03T11:10:33.552Z,1005.22
2017-01-03T11:11:33.577Z,1005.21
2017-01-03T11:12:33.606Z,1005.17
2017-01-03T11:13:33.636Z,1005.17
2017-01-03T11:14:33.658Z,1005.2
2017-01-03T11:15:33.684Z,1005.16
2017-01-03T11:16:33.703Z,1005.12
2017-01-03T11:17:33.729Z,1005.07
2017-01-03T11:18:33.754Z,1005.07
2017-01-03T11:19:33.780Z,1004.98
2017-01-03T11:20:33.807Z,1005.02
2017-01-03T11:21:33.833Z,1004.97
2017-01-03T11:22:33.859Z,1004.92
2017-01-03T11:23:33.886Z,1004.9
2017-01-03T11:24:33.916Z,1004.83
2017-01-03T11:25:33.940Z,1004.85
2017-01-03T11:26:33.966Z,1004.88
2017-01-03T11:27:33.991Z,1004.87
2017-01-03T11:28:34.018Z,1004.84
2017-01-03T11:29:34.046Z,1004.9
2017-01-03T11:30:34.073Z,1004.96
2017-01-03T11:31:34.096Z,1004.93
2017-01-03T11:32:34.123Z,1004.94
2017-01-03T11:33:34.152Z,1004.9
2017-01-03T11:34:34.177Z,1004.93
2017-01-03T11:35:34.203Z,1004.9
2017-01-03T11:36:34.234Z,1004.88
2017-01-03T11:37:34.259Z,1004.92
2017-01-03T11:38:34.283Z,1004.86
2017-01-03T11:39:34.307Z,1004.85
2017-01-03T11:40:34.337Z,1004.94
2017-01-03T11:41:34.362Z,1004.95
2017-01-03T11:42:34.393Z,1004.96
2017-01-03T11:43:34.417Z,1004.95
2017-01-03T11:44:34.441Z,1004.98
2017-01-03T11:45:34.468Z,1004.96
2017-01-03T11:46:34.497Z,1004.97
2017-01-03T11:47:34.521Z,1004.98
2017-01-03T11:48:34.548Z,1005.02
2017-01-03T11:49:34.574Z,1005
2017-01-03T11:50:34.601Z,1005.03
2017-01-03T11:51:34.627Z,1004.99
2017-01-03T11:52:34.653Z,1005.02
2017-01-03T11:53:34.679Z,1004.91
2017-01-03T11:54:34.705Z,1004.84
2017-01-03T11:55:34.731Z,1004.88
2017-01-03T11:56:34.759Z,1004.85
2017-01-03T11:57:34.785Z,1004.74
2017-01-03T11:58:34.811Z,1004.73
2017-01-03T11:59:34.841Z,1004.64
2017-01-03T12:00:34.865Z,1004.58
2017-01-03T12:01:34.894Z,1004.56
2017-01-03T12:02:34.920Z,1004.5
2017-01-03T12:03:34.945Z,1004.49
2017-01-03T12:04:34.970Z,1004.51
2017-01-03T12:05:34.998Z,1004.54
2017-01-03T12:06:35.024Z,1004.55
2017-01-03T12:07:35.051Z,1004.6
2017-01-03T12:08:35.090Z,1004.57
2017-01-03T12:09:35.110Z,1004.62